Time;durP1;ratioP1;P1;durP2;ratioP2;P2;SDS_P1;SDS_P2;PMS_P1;PMS_P2;Temp;Humidity;BMP_temperature;BMP_pressure;BME280_temperature;BME280_humidity;BME280_pressure;Samples;Min_cycle;Max_cycle;Signal;HPM_P1;HPM_P2
2022/04/21 00:00:54;;;;;;;10.27;1.83;;;;;;;13.21;nan;101421.19;4857322;29;20459;-85
2022/04/21 00:03:24;;;;;;;12.97;1.90;;;;;;;13.26;nan;101426.97;4862697;29;20466;-85
2022/04/21 00:05:54;;;;;;;17.00;2.53;;;;;;;13.29;nan;101426.56;4864468;29;20473;-85
2022/04/21 00:08:22;;;;;;;15.67;1.90;;;;;;;13.29;nan;101425.69;4856850;29;20497;-85
2022/04/21 00:10:49;;;;;;;14.77;2.17;;;;;;;13.24;nan;101417.22;4837157;29;20458;-86
2022/04/21 00:13:17;;;;;;;11.57;2.33;;;;;;;13.26;nan;101428.88;4837636;29;20946;-86
2022/04/21 00:15:45;;;;;;;16.90;2.70;;;;;;;13.23;nan;101423.75;4862717;29;20463;-86
2022/04/21 00:18:14;;;;;;;16.60;2.37;;;;;;;13.21;nan;101418.47;4866470;29;20864;-85
2022/04/21 00:20:44;;;;;;;17.13;3.40;;;;;;;13.18;nan;101413.34;4865588;29;20453;-86
2022/04/21 00:23:29;;;;;;;12.97;2.93;;;;;;;13.27;nan;101416.84;4865495;29;20825;-85
2022/04/21 00:26:00;;;;;;;10.53;3.53;;;;;;;13.23;nan;101405.38;4866797;29;20529;-85
2022/04/21 00:28:29;;;;;;;16.57;2.80;;;;;;;13.18;nan;101402.38;4835456;29;20890;-85
2022/04/21 00:30:58;;;;;;;15.30;2.53;;;;;;;13.18;nan;101409.75;4850329;29;20808;-86
2022/04/21 00:33:26;;;;;;;11.73;2.13;;;;;;;13.15;nan;101413.72;4866147;29;20457;-85
2022/04/21 00:35:54;;;;;;;13.67;2.33;;;;;;;13.05;nan;101396.72;4851690;29;20462;-86
2022/04/21 00:38:24;;;;;;;18.20;2.60;;;;;;;13.07;nan;101400.97;4880378;29;20462;-86
2022/04/21 00:40:52;;;;;;;14.20;1.80;;;;;;;13.09;nan;101407.09;4881790;29;20462;-86
2022/04/21 00:43:21;;;;;;;11.43;2.43;;;;;;;13.06;nan;101404.75;4865338;29;20461;-85
2022/04/21 00:45:51;;;;;;;21.53;2.20;;;;;;;13.09;nan;101404.34;4879230;29;20458;-86
2022/04/21 00:48:18;;;;;;;18.67;2.50;;;;;;;13.09;nan;101396.09;4846864;29;20471;-85
2022/04/21 00:50:47;;;;;;;12.80;2.30;;;;;;;13.09;nan;101398.84;4846650;29;20451;-85
2022/04/21 00:53:15;;;;;;;17.40;2.40;;;;;;;13.12;nan;101392.97;4871267;29;20490;-85
2022/04/21 00:55:43;;;;;;;10.80;2.20;;;;;;;13.05;nan;101383.84;4849808;29;20957;-86
2022/04/21 00:58:11;;;;;;;14.60;2.67;;;;;;;13.17;nan;101383.34;4851205;29;20968;-86
2022/04/21 01:00:38;;;;;;;12.20;2.50;;;;;;;13.07;nan;101373.53;4846682;29;20460;-85
2022/04/21 01:03:07;;;;;;;12.53;2.20;;;;;;;13.02;nan;101367.75;4880094;29;20462;-86
2022/04/21 01:05:35;;;;;;;8.70;2.30;;;;;;;13.07;nan;101381.75;4849608;29;20464;-85
2022/04/21 01:08:06;;;;;;;10.60;1.70;;;;;;;13.03;nan;101374.94;4847942;29;20462;-85
2022/04/21 01:10:35;;;;;;;13.87;2.10;;;;;;;12.99;nan;101368.16;4865532;29;20450;-86
2022/04/21 01:13:06;;;;;;;15.13;1.80;;;;;;;13.05;nan;101374.75;4831583;29;20873;-86
2022/04/21 01:15:38;;;;;;;8.00;1.30;;;;;;;13.03;nan;101360.38;4846851;29;20451;-86
2022/04/21 01:18:06;;;;;;;10.53;1.73;;;;;;;13.01;nan;101363.31;4831461;29;20466;-86
2022/04/21 01:20:34;;;;;;;9.40;2.10;;;;;;;12.98;nan;101354.63;4831438;29;20451;-85
2022/04/21 01:23:02;;;;;;;10.23;1.87;;;;;;;13.01;nan;101355.09;4853846;29;20454;-85
2022/04/21 01:25:39;;;;;;;13.10;2.00;;;;;;;13.03;nan;101354.91;4849994;29;20532;-85
2022/04/21 01:28:08;;;;;;;12.87;1.90;;;;;;;13.02;nan;101361.44;4832785;29;20518;-85
2022/04/21 01:30:36;;;;;;;16.00;2.13;;;;;;;12.98;nan;101352.72;4846347;29;20451;-84
2022/04/21 01:33:04;;;;;;;15.40;1.70;;;;;;;12.97;nan;101359.25;4846412;29;20459;-86
2022/04/21 01:35:33;;;;;;;10.67;1.80;;;;;;;12.95;nan;101350.38;4876581;29;20824;-85
2022/04/21 01:43:35;;;;;;;12.30;2.67;;;;;;;12.92;nan;101337.03;4875285;29;20454;-85
2022/04/21 01:46:03;;;;;;;14.23;2.30;;;;;;;12.92;nan;101341.66;4864677;29;20906;-85
2022/04/21 01:48:31;;;;;;;8.90;1.67;;;;;;;12.86;nan;101320.53;4849324;29;20792;-86
2022/04/21 01:51:01;;;;;;;10.73;2.83;;;;;;;12.88;nan;101343.13;4848629;29;20876;-86
2022/04/21 01:53:28;;;;;;;11.57;2.10;;;;;;;12.89;nan;101337.44;4864448;29;20994;-85
2022/04/21 01:55:58;;;;;;;7.77;2.43;;;;;;;12.91;nan;101338.06;4847998;29;20456;-85
2022/04/21 01:58:26;;;;;;;12.37;2.40;;;;;;;12.90;nan;101338.28;4849204;29;20510;-85
2022/04/21 02:00:54;;;;;;;16.47;2.13;;;;;;;12.83;nan;101332.72;4841218;29;20458;-85
2022/04/21 02:03:22;;;;;;;13.53;2.57;;;;;;;12.88;nan;101341.25;4847510;29;20458;-85
2022/04/21 02:05:50;;;;;;;13.87;2.67;;;;;;;12.86;nan;101337.84;4848337;29;20970;-85
2022/04/21 02:08:18;;;;;;;7.37;2.10;;;;;;;12.82;nan;101339.25;4845114;29;20454;-86
2022/04/21 02:10:47;;;;;;;13.93;2.50;;;;;;;12.83;nan;101343.69;4845786;29;20460;-86
2022/04/21 02:13:16;;;;;;;10.47;2.03;;;;;;;12.79;nan;101331.41;4864045;29;20458;-85
2022/04/21 02:15:44;;;;;;;11.57;2.30;;;;;;;12.81;nan;101332.06;4861644;29;20462;-85
2022/04/21 02:18:12;;;;;;;10.60;2.07;;;;;;;12.80;nan;101333.13;4863857;29;20467;-86
2022/04/21 02:20:40;;;;;;;13.83;1.90;;;;;;;12.74;nan;101321.00;4863432;29;20937;-86
2022/04/21 02:23:08;;;;;;;22.47;3.33;;;;;;;12.77;nan;101328.00;4854351;29;20462;-85
2022/04/21 02:25:35;;;;;;;9.00;2.00;;;;;;;12.78;nan;101318.75;4863458;29;20805;-86
2022/04/21 02:28:05;;;;;;;14.97;2.97;;;;;;;12.69;nan;101317.19;4848172;29;20592;-85
2022/04/21 02:30:32;;;;;;;11.43;1.77;;;;;;;12.71;nan;101315.91;4863828;29;20488;-85
2022/04/21 02:33:00;;;;;;;12.07;2.70;;;;;;;12.73;nan;101316.56;4863757;29;20454;-86
2022/04/21 02:35:28;;;;;;;15.90;3.00;;;;;;;12.72;nan;101298.41;4844063;29;20954;-86
2022/04/21 02:37:56;;;;;;;10.30;2.13;;;;;;;12.74;nan;101303.72;4845211;29;20452;-86
2022/04/21 02:40:24;;;;;;;16.73;2.63;;;;;;;12.76;nan;101310.69;4853716;29;20823;-86
2022/04/21 02:42:52;;;;;;;29.37;3.13;;;;;;;12.73;nan;101311.09;4857531;29;20470;-86
2022/04/21 02:45:20;;;;;;;9.30;1.93;;;;;;;12.73;nan;101311.09;4844113;29;20456;-86
2022/04/21 02:47:48;;;;;;;15.37;2.23;;;;;;;12.73;nan;101310.22;4845072;29;20455;-86
2022/04/21 02:50:17;;;;;;;13.60;1.90;;;;;;;12.73;nan;101310.22;4829931;29;20494;-86
2022/04/21 02:52:46;;;;;;;14.57;2.60;;;;;;;12.71;nan;101313.16;4875132;29;20456;-86
2022/04/21 02:58:00;;;;;;;16.70;2.70;;;;;;;12.75;nan;101308.16;4864993;29;20466;-86
2022/04/21 03:00:29;;;;;;;18.60;2.27;;;;;;;12.78;nan;101313.25;4847310;29;20446;-86
2022/04/21 03:02:57;;;;;;;35.63;4.23;;;;;;;12.77;nan;101306.06;4877874;29;20463;-86
2022/04/21 03:05:25;;;;;;;12.23;2.00;;;;;;;12.79;nan;101309.47;4847957;29;20518;-86
2022/04/21 03:07:54;;;;;;;15.67;2.40;;;;;;;12.78;nan;101308.63;4848209;29;20450;-86
2022/04/21 03:10:22;;;;;;;7.50;2.17;;;;;;;12.76;nan;101299.72;4856748;29;20479;-85
2022/04/21 03:12:50;;;;;;;20.13;2.60;;;;;;;12.75;nan;101302.66;4816497;29;20455;-86
2022/04/21 03:15:18;;;;;;;14.13;2.30;;;;;;;12.74;nan;101295.47;4859882;29;20451;-85
2022/04/21 03:17:46;;;;;;;9.63;1.57;;;;;;;12.74;nan;101300.97;4861278;29;20478;-85
2022/04/21 03:24:19;;;;;;;15.20;2.60;;;;;;;12.69;nan;101295.25;4873755;29;20458;-86
2022/04/21 03:25:48;;;;;;;13.93;2.17;;;;;;;12.68;nan;101296.28;4847148;29;20974;-85
2022/04/21 03:28:16;;;;;;;14.47;2.80;;;;;;;12.60;nan;101286.28;4844469;29;20455;-85
2022/04/21 03:30:44;;;;;;;8.30;1.30;;;;;;;12.68;nan;101296.28;4843444;29;20885;-86
2022/04/21 03:33:12;;;;;;;11.43;1.90;;;;;;;12.67;nan;101292.69;4844502;29;20459;-85
2022/04/21 03:35:41;;;;;;;23.87;2.83;;;;;;;12.62;nan;101286.06;4846573;29;20455;-85
2022/04/21 03:38:09;;;;;;;15.50;2.27;;;;;;;12.69;nan;101308.94;4829757;29;20876;-85
2022/04/21 03:40:36;;;;;;;10.03;1.70;;;;;;;12.66;nan;101287.41;4838216;29;20447;-85
2022/04/21 03:43:04;;;;;;;10.50;2.40;;;;;;;12.68;nan;101294.38;4843901;29;20848;-86
2022/04/21 03:45:33;;;;;;;7.20;1.70;;;;;;;12.70;nan;101291.44;4847978;29;20459;-86
2022/04/21 03:48:02;;;;;;;10.53;1.80;;;;;;;12.70;nan;101300.50;4848321;29;20962;-85
2022/04/21 03:50:31;;;;;;;14.13;2.93;;;;;;;12.73;nan;101299.25;4856666;29;20479;-86
2022/04/21 03:52:59;;;;;;;9.93;2.43;;;;;;;12.68;nan;101288.91;4847075;29;21014;-86
2022/04/21 03:55:27;;;;;;;14.77;3.40;;;;;;;12.66;nan;101277.28;4879090;29;20461;-86
2022/04/21 03:57:54;;;;;;;12.97;3.20;;;;;;;12.70;nan;101273.06;4862410;29;20462;-86
2022/04/21 04:00:24;;;;;;;16.00;2.60;;;;;;;12.69;nan;101279.63;4878806;29;20996;-85
2022/04/21 04:02:53;;;;;;;10.17;1.83;;;;;;;12.65;nan;101261.00;4862516;29;20451;-86
2022/04/21 04:05:21;;;;;;;10.37;2.10;;;;;;;12.57;nan;101252.91;4862366;29;20458;-87
2022/04/21 04:10:56;;;;;;;11.40;2.10;;;;;;;12.47;nan;101247.75;4857196;29;20890;-85
2022/04/21 04:13:24;;;;;;;14.83;2.57;;;;;;;12.44;nan;101245.38;4848971;29;20459;-85
2022/04/21 04:15:53;;;;;;;17.27;2.53;;;;;;;12.41;nan;101245.75;4847272;29;20831;-86
2022/04/21 04:18:21;;;;;;;14.00;2.07;;;;;;;12.33;nan;101238.50;4847429;29;20458;-86
2022/04/21 04:20:49;;;;;;;18.60;2.50;;;;;;;12.39;nan;101254.19;4845001;29;20443;-85
2022/04/21 04:23:20;;;;;;;10.00;2.13;;;;;;;12.43;nan;101260.97;4845489;29;20463;-85
2022/04/21 04:25:48;;;;;;;15.60;3.10;;;;;;;12.43;nan;101260.97;4861305;29;20457;-85
2022/04/21 04:28:16;;;;;;;20.10;2.23;;;;;;;12.40;nan;101247.66;4843255;29;20466;-85
2022/04/21 04:30:44;;;;;;;17.50;2.63;;;;;;;12.44;nan;101257.19;4860351;29;20490;-86
2022/04/21 04:33:12;;;;;;;14.30;2.17;;;;;;;12.36;nan;101237.25;4847213;29;20451;-85
2022/04/21 04:35:39;;;;;;;12.23;2.03;;;;;;;12.34;nan;101244.81;4862140;29;20938;-86
2022/04/21 04:38:07;;;;;;;13.93;2.60;;;;;;;12.37;nan;101233.47;4847247;29;20862;-85
2022/04/21 04:40:36;;;;;;;20.60;2.40;;;;;;;12.29;nan;101207.06;4861664;29;20454;-85
2022/04/21 04:43:04;;;;;;;14.40;2.50;;;;;;;12.41;nan;101210.13;4862488;29;20466;-86
2022/04/21 04:48:19;;;;;;;7.87;1.77;;;;;;;12.37;nan;101217.88;4863127;29;20523;-85
2022/04/21 04:50:47;;;;;;;11.67;1.60;;;;;;;12.32;nan;101209.38;4861916;29;20865;-85
2022/04/21 04:53:14;;;;;;;16.40;2.30;;;;;;;12.35;nan;101209.00;4859766;29;20486;-85
2022/04/21 04:55:43;;;;;;;6.37;1.90;;;;;;;12.43;nan;101216.28;4831714;29;20456;-86
2022/04/21 04:58:11;;;;;;;13.60;2.37;;;;;;;12.45;nan;101220.53;4847076;29;20462;-86
2022/04/21 05:00:38;;;;;;;12.30;1.97;;;;;;;12.48;nan;101215.69;4846932;29;20462;-86
2022/04/21 05:03:06;;;;;;;16.83;2.00;;;;;;;12.50;nan;101228.16;4838533;29;20455;-85
2022/04/21 05:05:34;;;;;;;8.43;2.10;;;;;;;12.51;nan;101212.56;4861822;29;20463;-86
2022/04/21 05:08:05;;;;;;;21.93;2.80;;;;;;;12.49;nan;101210.03;4861593;29;20970;-86
2022/04/21 05:10:34;;;;;;;8.40;2.60;;;;;;;12.51;nan;101202.41;4846587;29;20476;-86
2022/04/21 05:13:02;;;;;;;9.03;2.10;;;;;;;12.50;nan;101208.13;4846821;29;20458;-86
2022/04/21 05:15:30;;;;;;;16.07;2.23;;;;;;;12.49;nan;101203.69;4861853;29;20435;-85
2022/04/21 05:17:58;;;;;;;7.53;1.97;;;;;;;12.42;nan;101193.50;4848524;29;20455;-85
2022/04/21 05:20:27;;;;;;;12.17;2.23;;;;;;;12.34;nan;101190.00;4849851;29;20458;-85
2022/04/21 05:23:27;;;;;;;16.17;2.40;;;;;;;12.26;nan;101185.53;4850121;29;20510;-86
2022/04/21 05:25:57;;;;;;;9.47;1.70;;;;;;;12.29;nan;101196.09;4877141;29;20451;-85
2022/04/21 05:28:25;;;;;;;9.33;2.13;;;;;;;12.31;nan;101202.25;4846434;29;20452;-86
2022/04/21 05:30:58;;;;;;;12.10;1.67;;;;;;;12.28;nan;101196.28;4863749;29;20487;-86
2022/04/21 05:33:26;;;;;;;11.67;2.53;;;;;;;12.28;nan;101208.09;4854102;29;20459;-85
2022/04/21 05:35:55;;;;;;;15.00;2.03;;;;;;;12.26;nan;101214.81;4834392;29;20461;-86
2022/04/21 05:38:24;;;;;;;11.40;2.73;;;;;;;12.19;nan;101198.28;4794346;29;20471;-85
2022/04/21 05:40:52;;;;;;;11.23;1.80;;;;;;;12.31;nan;101224.16;4807218;29;20811;-85
2022/04/21 05:43:21;;;;;;;24.90;2.67;;;;;;;12.32;nan;101220.34;4790889;29;20458;-85
2022/04/21 05:45:50;;;;;;;10.37;2.37;;;;;;;12.31;nan;101217.84;4778076;29;20470;-86
2022/04/21 05:48:19;;;;;;;13.57;2.57;;;;;;;12.26;nan;101209.34;4769697;30;20487;-85
2022/04/21 05:50:49;;;;;;;19.07;3.03;;;;;;;12.22;nan;101205.28;4762523;30;20856;-85
2022/04/21 05:53:22;;;;;;;12.63;3.07;;;;;;;12.18;nan;101196.59;4755946;30;20490;-85
2022/04/21 05:55:50;;;;;;;15.73;3.40;;;;;;;12.13;nan;101193.56;4769286;30;20456;-85
2022/04/21 05:58:18;;;;;;;20.03;2.40;;;;;;;12.18;nan;101206.69;4769312;30;20960;-86
2022/04/21 06:00:46;;;;;;;8.97;1.77;;;;;;;12.18;nan;101202.06;4754504;30;20451;-86
2022/04/21 06:03:18;;;;;;;7.33;1.73;;;;;;;12.16;nan;101204.16;4783924;29;20450;-85
2022/04/21 06:05:47;;;;;;;10.90;2.67;;;;;;;12.17;nan;101194.88;4790202;29;20461;-85
2022/04/21 06:08:15;;;;;;;9.50;2.07;;;;;;;12.17;nan;101203.09;4863100;29;20901;-85
2022/04/21 06:10:43;;;;;;;15.77;2.50;;;;;;;12.22;nan;101208.88;4878405;29;20478;-85
2022/04/21 06:13:15;;;;;;;12.60;3.00;;;;;;;12.23;nan;101202.34;4847670;29;20455;-86
2022/04/21 06:15:44;;;;;;;20.80;3.03;;;;;;;12.15;nan;101198.84;4877921;29;20810;-86
2022/04/21 06:18:12;;;;;;;15.23;2.20;;;;;;;12.24;nan;101211.41;4893500;29;20996;-86
2022/04/21 06:20:40;;;;;;;10.90;2.00;;;;;;;12.24;nan;101217.75;4837328;29;20461;-85
2022/04/21 06:23:08;;;;;;;15.83;3.00;;;;;;;12.20;nan;101193.66;4807522;29;20465;-85
2022/04/21 06:25:41;;;;;;;20.43;2.87;;;;;;;12.27;nan;101216.50;4807676;29;20465;-86
2022/04/21 06:28:10;;;;;;;25.33;2.70;;;;;;;12.31;nan;101210.47;4836858;29;21094;-85
2022/04/21 06:30:38;;;;;;;10.90;2.37;;;;;;;12.34;nan;101211.94;4807218;29;20489;-85
2022/04/21 06:33:06;;;;;;;11.30;1.97;;;;;;;12.42;nan;101203.59;4807179;29;20461;-85
2022/04/21 06:35:34;;;;;;;9.50;1.70;;;;;;;12.44;nan;101199.63;4806899;29;20471;-85
2022/04/21 06:38:03;;;;;;;8.27;2.33;;;;;;;12.52;nan;101198.63;4831699;29;20513;-85
2022/04/21 06:40:31;;;;;;;17.77;2.73;;;;;;;12.57;nan;101189.84;4858822;29;20798;-85
2022/04/21 06:43:02;;;;;;;15.00;2.33;;;;;;;12.67;nan;101201.34;4862844;29;20826;-86
2022/04/21 06:48:23;;;;;;;8.10;2.57;;;;;;;12.80;nan;101195.97;4852794;29;20454;-85
2022/04/21 06:50:54;;;;;;;9.50;3.00;;;;;;;12.89;nan;101200.28;4847844;29;21009;-86
2022/04/21 06:53:22;;;;;;;14.90;1.77;;;;;;;12.96;nan;101209.41;4879232;29;20554;-86
2022/04/21 06:55:50;;;;;;;8.30;2.00;;;;;;;13.02;nan;101202.28;4847066;29;20841;-87
2022/04/21 06:58:18;;;;;;;16.83;2.50;;;;;;;13.12;nan;101208.25;4854571;29;20975;-86
2022/04/21 07:00:47;;;;;;;22.23;1.57;;;;;;;13.21;nan;101206.25;4881676;29;20461;-86
2022/04/21 07:03:15;;;;;;;12.87;1.67;;;;;;;13.39;nan;101206.59;4773261;30;20457;-86
2022/04/21 07:05:43;;;;;;;16.03;2.80;;;;;;;13.52;nan;101201.19;4774147;29;20458;-86
2022/04/21 07:08:10;;;;;;;9.60;1.57;;;;;;;13.71;nan;101203.19;4756898;30;20459;-86
2022/04/21 07:10:39;;;;;;;13.80;2.90;;;;;;;13.85;nan;101203.28;4768109;30;20490;-85
2022/04/21 07:13:10;;;;;;;9.23;1.83;;;;;;;13.96;nan;101203.53;4768264;30;20980;-85
2022/04/21 07:15:42;;;;;;;18.87;3.10;;;;;;;14.01;nan;101201.03;4782810;29;20467;-86
2022/04/21 07:18:11;;;;;;;7.90;1.70;;;;;;;14.06;nan;101203.97;4800068;29;20462;-86
2022/04/21 07:20:39;;;;;;;11.97;2.37;;;;;;;14.13;nan;101199.38;4802832;29;20454;-85
2022/04/21 07:23:07;;;;;;;17.43;3.20;;;;;;;14.20;nan;101191.16;4847818;29;21013;-85
2022/04/21 07:25:35;;;;;;;13.53;2.53;;;;;;;14.28;nan;101198.34;4847481;29;20468;-86
2022/04/21 07:28:04;;;;;;;14.33;2.23;;;;;;;14.34;nan;101201.13;4863019;29;20458;-85
2022/04/21 07:30:31;;;;;;;12.90;2.30;;;;;;;14.45;nan;101214.28;4871336;29;20470;-85
2022/04/21 07:33:01;;;;;;;12.43;1.67;;;;;;;14.48;nan;101202.03;4832888;29;20834;-86
2022/04/21 07:35:30;;;;;;;8.80;1.50;;;;;;;14.56;nan;101210.09;4862368;29;20451;-86
2022/04/21 07:37:59;;;;;;;9.17;1.73;;;;;;;14.59;nan;101217.94;4879092;29;20462;-86
2022/04/21 07:40:29;;;;;;;9.33;1.30;;;;;;;14.65;nan;101214.31;4877173;29;20454;-86
2022/04/21 07:43:02;;;;;;;12.90;2.00;;;;;;;14.62;nan;101214.78;4879110;29;20516;-86
2022/04/21 07:45:32;;;;;;;7.60;1.50;;;;;;;14.62;nan;101203.78;4862083;29;20821;-85
2022/04/21 07:48:00;;;;;;;21.37;2.73;;;;;;;14.66;nan;101212.44;4847024;29;20462;-86
2022/04/21 07:50:32;;;;;;;11.47;1.37;;;;;;;14.68;nan;101202.06;4862106;29;20486;-90
2022/04/21 07:53:21;;;;;;;22.33;1.77;;;;;;;14.85;nan;101209.69;4872599;29;20514;-89
2022/04/21 07:55:53;;;;;;;12.17;1.43;;;;;;;14.96;nan;101213.75;4862030;29;20461;-89
2022/04/21 07:58:27;;;;;;;12.17;1.70;;;;;;;15.00;nan;101215.03;4862417;29;20454;-89
2022/04/21 08:00:56;;;;;;;11.17;1.70;;;;;;;15.03;nan;101211.81;4847820;29;20457;-89
2022/04/21 08:03:24;;;;;;;13.40;1.50;;;;;;;15.15;nan;101212.91;4833286;29;20434;-87
2022/04/21 08:05:52;;;;;;;5.70;2.50;;;;;;;15.23;nan;101206.31;4847814;29;20455;-87
2022/04/21 08:08:20;;;;;;;8.83;1.40;;;;;;;15.33;nan;101211.41;4878983;29;20513;-90
2022/04/21 08:10:48;;;;;;;9.50;1.10;;;;;;;15.28;nan;101205.69;4837134;29;20496;-89
2022/04/21 08:13:17;;;;;;;14.70;2.07;;;;;;;15.37;nan;101197.00;4844252;29;20854;-87
2022/04/21 08:15:47;;;;;;;7.57;1.10;;;;;;;15.44;nan;101184.03;4829760;29;20534;-88
2022/04/21 08:18:16;;;;;;;9.40;1.30;;;;;;;15.59;nan;101188.50;4831315;29;20459;-86
2022/04/21 08:20:48;;;;;;;8.50;1.70;;;;;;;15.68;nan;101201.81;4867730;29;20442;-86
2022/04/21 08:23:16;;;;;;;8.40;1.77;;;;;;;15.65;nan;101188.47;4850659;29;20454;-87
2022/04/21 08:34:27;;;;;;;9.40;1.30;;;;;;;15.87;nan;101178.00;4881380;29;20458;-85
2022/04/21 08:36:55;;;;;;;9.03;1.43;;;;;;;15.78;nan;101182.91;4880053;29;20464;-86
2022/04/21 08:39:23;;;;;;;6.10;1.40;;;;;;;15.77;nan;101181.25;4864991;29;20829;-87
2022/04/21 08:41:53;;;;;;;10.73;1.90;;;;;;;15.84;nan;101195.81;4849887;29;20477;-86
2022/04/21 08:44:23;;;;;;;6.40;1.40;;;;;;;15.85;nan;101200.28;4850315;29;20465;-88
2022/04/21 08:46:51;;;;;;;11.60;1.63;;;;;;;15.84;nan;101184.81;4865542;29;20446;-86
2022/04/21 08:49:19;;;;;;;12.63;1.40;;;;;;;15.94;nan;101186.25;4850024;29;20787;-87
2022/04/21 08:51:47;;;;;;;7.23;1.27;;;;;;;16.11;nan;101190.22;4849296;29;20944;-87
2022/04/21 08:54:15;;;;;;;8.90;1.93;;;;;;;16.28;nan;101185.03;4867826;29;20530;-87
2022/04/21 08:56:44;;;;;;;7.97;1.10;;;;;;;16.35;nan;101178.44;4835066;29;20450;-86
2022/04/21 08:59:15;;;;;;;5.93;1.30;;;;;;;16.38;nan;101180.72;4878447;29;20470;-88
2022/04/21 09:01:43;;;;;;;9.47;2.03;;;;;;;16.46;nan;101185.97;4864427;29;20465;-86
2022/04/21 09:04:12;;;;;;;11.80;2.00;;;;;;;16.56;nan;101189.09;4880514;29;20514;-87
2022/04/21 09:06:40;;;;;;;9.80;1.50;;;;;;;16.58;nan;101184.19;4881189;29;20469;-87
2022/04/21 09:09:21;;;;;;;10.23;1.23;;;;;;;16.56;nan;101189.09;4893518;29;20973;-87
2022/04/21 09:11:53;;;;;;;2.87;1.00;;;;;;;16.68;nan;101188.44;4864983;29;20561;-87
2022/04/21 09:14:20;;;;;;;5.70;1.10;;;;;;;16.86;nan;101192.09;4834662;29;20447;-87
2022/04/21 09:16:48;;;;;;;5.73;1.00;;;;;;;16.99;nan;101171.81;4849877;29;20490;-87
2022/04/21 09:19:16;;;;;;;5.20;1.47;;;;;;;17.13;nan;101201.00;4848863;29;20518;-87
2022/04/21 09:21:44;;;;;;;7.30;1.57;;;;;;;17.12;nan;101185.53;4833315;29;20446;-87
2022/04/21 09:24:22;;;;;;;5.53;1.30;;;;;;;17.12;nan;101182.75;4848924;29;21000;-87
2022/04/21 09:26:51;;;;;;;6.33;1.30;;;;;;;17.10;nan;101179.38;4849572;29;20462;-87
2022/04/21 09:29:28;;;;;;;5.17;1.10;;;;;;;17.08;nan;101176.00;4848736;29;20831;-87
2022/04/21 09:32:00;;;;;;;10.93;1.30;;;;;;;17.13;nan;101187.19;4850158;29;20564;-87
2022/04/21 09:34:37;;;;;;;5.57;1.40;;;;;;;17.06;nan;101175.38;4850931;29;20454;-86
2022/04/21 09:37:07;;;;;;;11.63;1.83;;;;;;;17.13;nan;101187.19;4850204;29;20458;-87
2022/04/21 09:39:41;;;;;;;10.00;1.20;;;;;;;17.20;nan;101176.94;4855005;29;20467;-87
2022/04/21 09:42:11;;;;;;;8.23;1.40;;;;;;;17.31;nan;101183.66;4846080;29;20455;-88
2022/04/21 09:47:32;;;;;;;6.40;0.90;;;;;;;17.52;nan;101174.91;4862361;29;20455;-87
2022/04/21 09:50:12;;;;;;;11.00;1.83;;;;;;;17.65;nan;101167.59;4830995;29;20459;-87
2022/04/21 09:52:49;;;;;;;7.77;1.70;;;;;;;17.87;nan;101186.25;4831955;29;21034;-87
2022/04/21 09:55:38;;;;;;;4.87;1.10;;;;;;;17.97;nan;101166.34;4845561;29;20523;-87
2022/04/21 09:58:09;;;;;;;5.70;0.93;;;;;;;18.11;nan;101181.69;4817588;29;20459;-86
2022/04/21 10:00:37;;;;;;;7.10;1.10;;;;;;;18.25;nan;101187.91;4842146;29;20981;-87
2022/04/21 10:03:05;;;;;;;7.70;1.30;;;;;;;18.29;nan;101183.56;4860625;29;20459;-86
2022/04/21 10:05:34;;;;;;;15.20;4.10;;;;;;;18.25;nan;101179.59;4852201;29;20995;-86
2022/04/21 10:08:06;;;;;;;9.60;1.20;;;;;;;18.36;nan;101181.56;4848655;29;20863;-87
2022/04/21 10:10:34;;;;;;;12.07;1.80;;;;;;;18.41;nan;101173.41;4834107;29;20446;-87
2022/04/21 10:13:06;;;;;;;11.50;1.60;;;;;;;18.48;nan;101179.66;4833878;29;20945;-86
2022/04/21 10:15:35;;;;;;;3.37;1.00;;;;;;;18.53;nan;101176.19;4863540;29;20473;-88
2022/04/21 10:18:04;;;;;;;10.87;1.00;;;;;;;18.60;nan;101165.91;4834974;29;20459;-87
2022/04/21 10:20:33;;;;;;;3.90;1.10;;;;;;;18.71;nan;101167.00;4832816;29;20443;-87
2022/04/21 10:23:03;;;;;;;8.17;1.43;;;;;;;18.73;nan;101170.38;4863530;29;20469;-86
2022/04/21 10:25:38;;;;;;;10.93;1.77;;;;;;;18.56;nan;101173.81;4862457;29;20503;-86
2022/04/21 10:28:34;;;;;;;18.60;9.90;;;;;;;18.56;nan;101176.56;4849713;29;20462;-87
2022/04/21 10:31:30;;;;;;;8.83;4.10;;;;;;;18.48;nan;101179.66;4848344;29;20497;-87
2022/04/21 10:34:03;;;;;;;9.17;3.47;;;;;;;18.43;nan;101174.00;4848606;29;20820;-86
2022/04/21 10:36:35;;;;;;;7.90;1.37;;;;;;;18.36;nan;101176.03;4848638;29;20461;-87
2022/04/21 10:39:10;;;;;;;8.17;1.30;;;;;;;18.08;nan;101165.56;4832819;29;20467;-86
2022/04/21 10:41:39;;;;;;;2.80;1.20;;;;;;;18.01;nan;101163.94;4847866;29;20454;-87
2022/04/21 10:44:16;;;;;;;10.67;1.90;;;;;;;18.02;nan;101168.41;4862406;29;20447;-86
2022/04/21 10:46:44;;;;;;;8.33;1.80;;;;;;;17.88;nan;101171.34;4848114;29;20454;-87
2022/04/21 10:49:55;;;;;;;8.23;2.60;;;;;;;17.80;nan;101177.19;4877055;29;20521;-86
2022/04/21 10:58:33;;;;;;;9.73;3.33;;;;;;;17.90;nan;101169.16;4878515;29;20458;-86
2022/04/21 11:01:10;;;;;;;4.60;1.53;;;;;;;18.14;nan;101158.22;4879438;29;20832;-87
2022/04/21 11:03:38;;;;;;;6.40;1.50;;;;;;;18.55;nan;101141.66;4852732;29;20462;-86
2022/04/21 11:06:11;;;;;;;6.80;1.80;;;;;;;18.94;nan;101140.19;4848050;29;20450;-86
2022/04/21 11:08:40;;;;;;;5.30;1.60;;;;;;;19.22;nan;101150.59;4857291;29;20466;-87
2022/04/21 11:11:08;;;;;;;4.83;1.00;;;;;;;;;;4846769;29;20455;-86
2022/04/21 11:13:40;;;;;;;4.90;1.07;;;;;;;;;;4863398;29;20450;-87
2022/04/21 11:16:08;;;;;;;6.60;1.53;;;;;;;;;;4863143;29;20458;-87
2022/04/21 11:18:36;;;;;;;2.83;1.00;;;;;;;;;;4861412;29;20567;-86
2022/04/21 11:21:22;;;;;;;5.80;1.30;;;;;;;19.90;nan;101122.16;4847665;29;20454;-87
2022/04/21 11:23:49;;;;;;;5.03;0.90;;;;;;;19.99;nan;101126.25;4848123;29;20463;-87
2022/04/21 11:26:24;;;;;;;5.87;0.90;;;;;;;19.78;nan;101114.97;4862448;29;20537;-87
2022/04/21 11:28:53;;;;;;;5.70;1.57;;;;;;;19.54;nan;101122.50;4847587;29;20469;-86
2022/04/21 11:31:24;;;;;;;4.87;1.10;;;;;;;19.17;nan;101111.66;4862745;29;20482;-86
2022/04/21 11:33:53;;;;;;;4.83;1.40;;;;;;;18.96;nan;101115.88;4878004;29;21041;-87
2022/04/21 11:36:21;;;;;;;8.00;1.20;;;;;;;18.99;nan;101106.25;4862596;29;20462;-87
2022/04/21 11:38:52;;;;;;;7.40;1.23;;;;;;;19.32;nan;101113.94;4862488;29;20446;-86
2022/04/21 11:41:19;;;;;;;7.17;1.10;;;;;;;19.61;nan;101099.09;4879213;29;20461;-87
2022/04/21 11:43:50;;;;;;;6.57;1.00;;;;;;;19.85;nan;101110.09;4847327;29;20477;-86
2022/04/21 11:46:21;;;;;;;7.00;1.17;;;;;;;20.10;nan;101093.13;4877987;29;20469;-87
2022/04/21 11:49:00;;;;;;;12.47;2.53;;;;;;;20.31;nan;101096.03;4875851;29;20458;-87
2022/04/21 11:51:29;;;;;;;9.73;1.33;;;;;;;20.36;nan;101095.31;4859227;29;20489;-88
2022/04/21 11:54:04;;;;;;;8.00;1.20;;;;;;;20.39;nan;101089.28;4896629;29;20845;-86
2022/04/21 11:56:32;;;;;;;8.43;1.50;;;;;;;20.33;nan;101090.25;4881598;29;20510;-86
2022/04/21 11:59:07;;;;;;;8.33;1.20;;;;;;;20.28;nan;101101.25;4881288;29;20965;-87
2022/04/21 12:07:16;;;;;;;11.67;1.23;;;;;;;20.83;nan;101092.22;4882284;29;20457;-87
2022/04/21 12:09:46;;;;;;;7.97;0.90;;;;;;;20.86;nan;101080.63;4865545;29;20826;-88
2022/04/21 12:12:23;;;;;;;4.40;1.17;;;;;;;20.91;nan;101089.03;4850792;29;20550;-87
2022/04/21 12:14:51;;;;;;;8.87;1.37;;;;;;;21.08;nan;101075.97;4864852;29;20458;-88
2022/04/21 12:17:22;;;;;;;5.67;1.20;;;;;;;21.20;nan;101081.44;4834368;29;20830;-87
2022/04/21 12:19:50;;;;;;;9.57;1.50;;;;;;;21.32;nan;101085.81;4865378;29;20446;-87
2022/04/21 12:22:20;;;;;;;6.37;1.40;;;;;;;21.38;nan;101078.34;4835033;29;20450;-87
2022/04/21 12:24:54;;;;;;;4.27;0.90;;;;;;;21.38;nan;101079.19;4866569;29;20454;-87
2022/04/21 12:27:28;;;;;;;2.90;0.90;;;;;;;21.40;nan;101069.75;4834778;29;20453;-88
2022/04/21 12:29:58;;;;;;;2.70;0.60;;;;;;;21.44;nan;101066.22;4850699;29;20455;-87
2022/04/21 12:32:28;;;;;;;5.60;1.00;;;;;;;21.32;nan;101071.91;4809627;29;20516;-87
2022/04/21 12:35:18;;;;;;;5.80;0.90;;;;;;;21.17;nan;101066.06;4780409;29;20469;-87